Time,TemperatureF,DewpointF,PressureIn,WindDirection,WindDirectionDegrees,WindSpeedMPH,WindSpeedGustMPH,Humidity,HourlyPrecipIn,Conditions,Clouds,dailyrainin,SoftwareType,DateUTC
2013-02-11 00:02:00,45.0,26.0,-100.00,East,95,6.0,12.0,48,-99.99,,,-99.99,,2013-02-11 05:02:00,
2013-02-11 00:12:00,44.0,27.0,-100.00,ESE,105,7.0,13.0,51,-99.99,,,-99.99,,2013-02-11 05:12:00,
2013-02-11 00:22:00,44.0,28.0,-100.00,ESE,110,6.0,13.0,53,-99.99,,,-99.99,,2013-02-11 05:22:00,
2013-02-11 00:32:00,44.0,29.0,-100.00,East,100,8.0,13.0,54,-99.99,,,-99.99,,2013-02-11 05:32:00,
2013-02-11 00:42:00,44.0,29.0,-100.00,ESE,105,6.0,13.0,56,-99.99,,,-99.99,,2013-02-11 05:42:00,
2013-02-11 00:52:00,44.0,30.0,-100.00,ESE,105,6.0,12.0,57,-99.99,,,-99.99,,2013-02-11 05:52:00,
2013-02-11 01:02:00,44.0,31.0,-100.00,ESE,110,7.0,13.0,58,-99.99,,,-99.99,,2013-02-11 06:02:00,
2013-02-11 01:11:00,44.0,31.0,-100.00,East,95,6.0,14.0,59,-99.99,,,-99.99,,2013-02-11 06:11:00,
2013-02-11 01:22:00,45.0,32.0,-100.00,ESE,105,6.0,14.0,60,-99.99,,,-99.99,,2013-02-11 06:22:00,
2013-02-11 01:32:00,45.0,32.0,-100.00,ESE,105,6.0,14.0,60,-99.99,,,-99.99,,2013-02-11 06:32:00,
2013-02-11 01:42:00,45.0,33.0,-100.00,SE,125,6.0,13.0,64,-99.99,,,-99.99,,2013-02-11 06:42:00,
2013-02-11 01:52:00,45.0,35.0,-100.00,ESE,110,7.0,16.0,66,-99.99,,,-99.99,,2013-02-11 06:52:00,
2013-02-11 02:01:00,45.0,35.0,-100.00,ESE,110,6.0,11.0,67,-99.99,,,-99.99,,2013-02-11 07:01:00,
2013-02-11 02:12:00,45.0,35.0,-100.00,ESE,110,6.0,14.0,68,-99.99,,,-99.99,,2013-02-11 07:12:00,
2013-02-11 02:22:00,45.0,36.0,-100.00,ESE,115,4.0,12.0,69,-99.99,,,-99.99,,2013-02-11 07:22:00,
2013-02-11 02:32:00,45.0,37.0,-100.00,SE,130,5.0,11.0,71,-99.99,,,-99.99,,2013-02-11 07:32:00,
2013-02-11 02:42:00,45.0,37.0,-100.00,East,90,4.0,15.0,72,-99.99,,,-99.99,,2013-02-11 07:42:00,
2013-02-11 02:52:00,45.0,37.0,-100.00,East,90,4.0,15.0,72,-99.99,,,-99.99,,2013-02-11 07:52:00,
2013-02-11 03:01:00,45.0,37.0,-100.00,SE,125,5.0,11.0,74,-99.99,,,-99.99,,2013-02-11 08:01:00,
2013-02-11 03:11:00,45.0,38.0,-100.00,ESE,120,5.0,9.0,77,-99.99,,,-99.99,,2013-02-11 08:11:00,
2013-02-11 03:21:00,45.0,39.0,-100.00,ESE,105,4.0,13.0,80,-99.99,,,-99.99,,2013-02-11 08:21:00,
2013-02-11 03:32:00,45.0,40.0,-100.00,ESE,105,6.0,11.0,83,-99.99,,,-99.99,,2013-02-11 08:32:00,
2013-02-11 03:42:00,44.0,40.0,-100.00,East,100,6.0,12.0,85,-99.99,,,-99.99,,2013-02-11 08:42:00,
2013-02-11 03:52:00,44.0,40.0,-100.00,ESE,115,6.0,11.0,87,-99.99,,,-99.99,,2013-02-11 08:52:00,
2013-02-11 04:02:00,44.0,40.0,-100.00,ESE,120,2.0,11.0,88,-99.99,,,-99.99,,2013-02-11 09:02:00,
2013-02-11 04:12:00,44.0,41.0,-100.00,ESE,115,7.0,12.0,89,-99.99,,,-99.99,,2013-02-11 09:12:00,
2013-02-11 04:21:00,44.0,41.0,-100.00,East,80,6.0,13.0,89,-99.99,,,-99.99,,2013-02-11 09:21:00,
2013-02-11 04:32:00,44.0,41.0,-100.00,SW,215,4.0,12.0,89,-99.99,,,-99.99,,2013-02-11 09:32:00,
2013-02-11 04:42:00,44.0,41.0,-100.00,ESE,115,2.0,9.0,89,-99.99,,,-99.99,,2013-02-11 09:42:00,
2013-02-11 04:51:00,44.0,41.0,-100.00,ESE,115,2.0,9.0,89,-99.99,,,-99.99,,2013-02-11 09:51:00,
2013-02-11 05:01:00,45.0,42.0,-100.00,ESE,120,2.0,11.0,89,-99.99,,,-99.99,,2013-02-11 10:01:00,
2013-02-11 05:11:00,45.0,42.0,-100.00,SE,125,5.0,14.0,89,-99.99,,,-99.99,,2013-02-11 10:11:00,
2013-02-11 05:21:00,45.0,42.0,-100.00,SE,125,5.0,14.0,89,-99.99,,,-99.99,,2013-02-11 10:21:00,
2013-02-11 05:32:00,45.0,42.0,-100.00,South,185,4.0,12.0,89,-99.99,,,-99.99,,2013-02-11 10:32:00,
2013-02-11 05:42:00,45.0,42.0,-100.00,SE,140,3.0,11.0,89,-99.99,,,-99.99,,2013-02-11 10:42:00,
2013-02-11 05:52:00,46.0,42.0,-100.00,ESE,120,6.0,12.0,89,-99.99,,,-99.99,,2013-02-11 10:52:00,
2013-02-11 06:02:00,46.0,42.0,-100.00,South,180,2.0,10.0,89,-99.99,,,-99.99,,2013-02-11 11:02:00,
2013-02-11 06:11:00,46.0,42.0,-100.00,ESE,110,0.0,10.0,89,-99.99,,,-99.99,,2013-02-11 11:11:00,
2013-02-11 06:22:00,46.0,43.0,-100.00,SE,140,2.0,8.0,89,-99.99,,,-99.99,,2013-02-11 11:22:00,
2013-02-11 06:32:00,46.0,43.0,-100.00,ESE,105,5.0,11.0,89,-99.99,,,-99.99,,2013-02-11 11:32:00,
2013-02-11 06:42:00,46.0,43.0,-100.00,SSE,150,2.0,11.0,89,-99.99,,,-99.99,,2013-02-11 11:42:00,
2013-02-11 06:52:00,46.0,43.0,-100.00,SE,140,3.0,8.0,89,-99.99,,,-99.99,,2013-02-11 11:52:00,
2013-02-11 07:03:00,46.0,43.0,-100.00,ESE,110,6.0,9.0,89,-99.99,,,-99.99,,2013-02-11 12:03:00,
2013-02-11 07:12:00,46.0,43.0,-100.00,ESE,115,4.0,9.0,89,-99.99,,,-99.99,,2013-02-11 12:12:00,
2013-02-11 07:22:00,46.0,44.0,-100.00,ESE,120,5.0,11.0,89,-99.99,,,-99.99,,2013-02-11 12:22:00,
2013-02-11 07:32:00,47.0,44.0,-100.00,SE,130,1.0,12.0,89,-99.99,,,-99.99,,2013-02-11 12:32:00,
2013-02-11 07:42:00,47.0,44.0,-100.00,SE,145,4.0,9.0,89,-99.99,,,-99.99,,2013-02-11 12:42:00,
2013-02-11 07:52:00,47.0,44.0,-100.00,ESE,120,7.0,13.0,89,-99.99,,,-99.99,,2013-02-11 12:52:00,
2013-02-11 08:02:00,47.0,44.0,-100.00,ESE,120,5.0,8.0,89,-99.99,,,-99.99,,2013-02-11 13:02:00,
2013-02-11 08:12:00,47.0,44.0,-100.00,ESE,110,6.0,12.0,88,-99.99,,,-99.99,,2013-02-11 13:12:00,
2013-02-11 08:22:00,47.0,44.0,-100.00,ESE,110,7.0,15.0,87,-99.99,,,-99.99,,2013-02-11 13:22:00,
2013-02-11 08:33:00,47.0,44.0,-100.00,ESE,105,3.0,12.0,87,-99.99,,,-99.99,,2013-02-11 13:33:00,
2013-02-11 08:42:00,47.0,44.0,-100.00,SE,130,4.0,15.0,87,-99.99,,,-99.99,,2013-02-11 13:42:00,
2013-02-11 08:52:00,48.0,44.0,-100.00,SSE,150,6.0,12.0,87,-99.99,,,-99.99,,2013-02-11 13:52:00,
2013-02-11 09:02:00,48.0,44.0,-100.00,South,170,4.0,14.0,85,-99.99,,,-99.99,,2013-02-11 14:02:00,
2013-02-11 09:11:00,48.0,43.0,-100.00,SE,135,7.0,13.0,83,-99.99,,,-99.99,,2013-02-11 14:11:00,
2013-02-11 09:22:00,49.0,44.0,-100.00,ESE,115,3.0,13.0,82,-99.99,,,-99.99,,2013-02-11 14:22:00,
2013-02-11 09:33:00,49.0,42.0,-100.00,SSW,195,6.0,22.0,76,-99.99,,,-99.99,,2013-02-11 14:33:00,
2013-02-11 09:42:00,51.0,42.0,-100.00,South,185,4.0,16.0,72,-99.99,,,-99.99,,2013-02-11 14:42:00,
2013-02-11 09:52:00,51.0,41.0,-100.00,South,185,5.0,16.0,69,-99.99,,,-99.99,,2013-02-11 14:52:00,
2013-02-11 10:02:00,51.0,40.0,-100.00,SSE,165,7.0,19.0,67,-99.99,,,-99.99,,2013-02-11 15:02:00,
2013-02-11 10:11:00,51.0,39.0,-100.00,South,185,7.0,17.0,63,-99.99,,,-99.99,,2013-02-11 15:11:00,
2013-02-11 10:22:00,52.0,39.0,-100.00,SW,220,3.0,11.0,61,-99.99,,,-99.99,,2013-02-11 15:22:00,
2013-02-11 10:32:00,51.0,37.0,-100.00,SW,220,6.0,16.0,58,-99.99,,,-99.99,,2013-02-11 15:32:00,
2013-02-11 10:42:00,51.0,34.0,-100.00,SW,220,14.0,22.0,52,-99.99,,,-99.99,,2013-02-11 15:42:00,
2013-02-11 10:52:00,51.0,33.0,-100.00,SW,225,11.0,26.0,51,-99.99,,,-99.99,,2013-02-11 15:52:00,
2013-02-11 11:02:00,51.0,34.0,-100.00,SSW,195,10.0,20.0,50,-99.99,,,-99.99,,2013-02-11 16:02:00,
2013-02-11 11:12:00,51.0,33.0,-100.00,SSW,195,7.0,24.0,50,-99.99,,,-99.99,,2013-02-11 16:12:00,
2013-02-11 11:22:00,51.0,32.0,-100.00,SW,225,12.0,23.0,48,-99.99,,,-99.99,,2013-02-11 16:22:00,
2013-02-11 11:32:00,50.0,33.0,-100.00,SSW,205,15.0,25.0,51,-99.99,,,-99.99,,2013-02-11 16:32:00,
2013-02-11 11:42:00,49.0,33.0,-100.00,SW,220,8.0,20.0,53,-99.99,,,-99.99,,2013-02-11 16:42:00,
2013-02-11 11:52:00,49.0,32.0,-100.00,SSW,210,8.0,22.0,52,-99.99,,,-99.99,,2013-02-11 16:52:00,
2013-02-11 12:02:00,47.0,32.0,-100.00,SW,220,14.0,23.0,54,-99.99,,,-99.99,,2013-02-11 17:02:00,
2013-02-11 12:11:00,46.0,31.0,-100.00,SSW,195,11.0,27.0,55,-99.99,,,-99.99,,2013-02-11 17:11:00,
2013-02-11 12:22:00,46.0,32.0,-100.00,SW,225,10.0,20.0,57,-99.99,,,-99.99,,2013-02-11 17:22:00,
2013-02-11 12:32:00,46.0,30.0,-100.00,South,190,12.0,27.0,54,-99.99,,,-99.99,,2013-02-11 17:32:00,
2013-02-11 12:42:00,45.0,30.0,-100.00,SSW,205,18.0,25.0,54,-99.99,,,-99.99,,2013-02-11 17:42:00,
2013-02-11 12:52:00,44.0,30.0,-100.00,SW,230,15.0,30.0,56,-99.99,,,-99.99,,2013-02-11 17:52:00,
2013-02-11 13:02:00,44.0,29.0,-100.00,SSW,200,13.0,29.0,56,-99.99,,,-99.99,,2013-02-11 18:02:00,
2013-02-11 13:11:00,43.0,29.0,-100.00,SW,215,10.0,23.0,55,-99.99,,,-99.99,,2013-02-11 18:11:00,
2013-02-11 13:22:00,42.0,28.0,-100.00,SSW,200,12.0,27.0,56,-99.99,,,-99.99,,2013-02-11 18:22:00,
2013-02-11 13:32:00,40.0,28.0,-100.00,SW,220,13.0,29.0,59,-99.99,,,-99.99,,2013-02-11 18:32:00,
2013-02-11 13:42:00,40.0,28.0,-100.00,SW,230,11.0,22.0,60,-99.99,,,-99.99,,2013-02-11 18:42:00,
2013-02-11 13:53:00,40.0,28.0,-100.00,SSW,205,7.0,17.0,61,-99.99,,,-99.99,,2013-02-11 18:53:00,
2013-02-11 14:02:00,40.0,27.0,-100.00,SW,230,11.0,23.0,58,-99.99,,,-99.99,,2013-02-11 19:02:00,
2013-02-11 14:11:00,41.0,25.0,-100.00,SW,225,13.0,27.0,54,-99.99,,,-99.99,,2013-02-11 19:11:00,
2013-02-11 14:22:00,41.0,25.0,-100.00,SW,230,11.0,28.0,53,-99.99,,,-99.99,,2013-02-11 19:22:00,
2013-02-11 14:32:00,41.0,25.0,-100.00,SSW,210,9.0,29.0,52,-99.99,,,-99.99,,2013-02-11 19:32:00,
2013-02-11 14:42:00,41.0,25.0,-100.00,SW,215,11.0,26.0,53,-99.99,,,-99.99,,2013-02-11 19:42:00,
2013-02-11 14:51:00,40.0,25.0,-100.00,SW,220,7.0,27.0,54,-99.99,,,-99.99,,2013-02-11 19:51:00,
2013-02-11 15:02:00,40.0,25.0,-100.00,SW,220,11.0,20.0,54,-99.99,,,-99.99,,2013-02-11 20:02:00,
2013-02-11 15:11:00,40.0,25.0,-100.00,SSW,205,6.0,21.0,56,-99.99,,,-99.99,,2013-02-11 20:11:00,
2013-02-11 15:21:00,40.0,26.0,-100.00,SW,220,7.0,19.0,57,-99.99,,,-99.99,,2013-02-11 20:21:00,
2013-02-11 15:32:00,39.0,26.0,-100.00,SW,220,12.0,24.0,57,-99.99,,,-99.99,,2013-02-11 20:32:00,
2013-02-11 15:42:00,39.0,26.0,-100.00,SW,215,11.0,22.0,58,-99.99,,,-99.99,,2013-02-11 20:42:00,
2013-02-11 15:52:00,39.0,26.0,-100.00,SSW,210,12.0,24.0,58,-99.99,,,-99.99,,2013-02-11 20:52:00,
2013-02-11 16:02:00,38.0,25.0,-100.00,SW,220,9.0,28.0,59,-99.99,,,-99.99,,2013-02-11 21:02:00,
2013-02-11 16:12:00,38.0,25.0,-100.00,South,190,9.0,25.0,59,-99.99,,,-99.99,,2013-02-11 21:12:00,
2013-02-11 16:22:00,38.0,25.0,-100.00,SSW,205,7.0,20.0,58,-99.99,,,-99.99,,2013-02-11 21:22:00,
2013-02-11 16:32:00,38.0,24.0,-100.00,SW,220,5.0,21.0,58,-99.99,,,-99.99,,2013-02-11 21:32:00,
2013-02-11 16:42:00,37.0,24.0,-100.00,SW,230,9.0,19.0,58,-99.99,,,-99.99,,2013-02-11 21:42:00,
2013-02-11 16:52:00,37.0,23.0,-100.00,South,190,14.0,25.0,57,-99.99,,,-99.99,,2013-02-11 21:52:00,
2013-02-11 17:02:00,37.0,23.0,-100.00,SSW,200,12.0,24.0,56,-99.99,,,-99.99,,2013-02-11 22:02:00,
2013-02-11 17:12:00,37.0,23.0,-100.00,SW,220,12.0,24.0,56,-99.99,,,-99.99,,2013-02-11 22:12:00,
2013-02-11 17:22:00,37.0,22.0,-100.00,SW,215,15.0,34.0,55,-99.99,,,-99.99,,2013-02-11 22:22:00,
2013-02-11 17:32:00,37.0,23.0,-100.00,SW,230,9.0,25.0,56,-99.99,,,-99.99,,2013-02-11 22:32:00,
2013-02-11 17:42:00,37.0,23.0,-100.00,SW,235,7.0,20.0,56,-99.99,,,-99.99,,2013-02-11 22:42:00,
2013-02-11 17:52:00,37.0,22.0,-100.00,SW,220,9.0,23.0,56,-99.99,,,-99.99,,2013-02-11 22:52:00,
2013-02-11 18:02:00,36.0,22.0,-100.00,SW,215,9.0,21.0,56,-99.99,,,-99.99,,2013-02-11 23:02:00,
2013-02-11 18:11:00,36.0,22.0,-100.00,SW,215,14.0,21.0,55,-99.99,,,-99.99,,2013-02-11 23:11:00,
2013-02-11 18:22:00,36.0,22.0,-100.00,SW,220,10.0,18.0,55,-99.99,,,-99.99,,2013-02-11 23:22:00,
2013-02-11 18:32:00,36.0,22.0,-100.00,SSW,195,10.0,22.0,55,-99.99,,,-99.99,,2013-02-11 23:32:00,
2013-02-11 18:42:00,36.0,22.0,-100.00,SSW,205,12.0,27.0,54,-99.99,,,-99.99,,2013-02-11 23:42:00,
2013-02-11 18:52:00,36.0,22.0,-100.00,SW,215,12.0,21.0,54,-99.99,,,-99.99,,2013-02-11 23:52:00,
2013-02-11 19:02:00,36.0,22.0,-100.00,SW,230,9.0,18.0,54,-99.99,,,-99.99,,2013-02-12 00:02:00,
2013-02-11 19:12:00,36.0,21.0,-100.00,SW,220,11.0,30.0,54,-99.99,,,-99.99,,2013-02-12 00:12:00,
2013-02-11 19:22:00,36.0,22.0,-100.00,SSW,200,8.0,20.0,55,-99.99,,,-99.99,,2013-02-12 00:22:00,
2013-02-11 19:32:00,36.0,22.0,-100.00,SW,215,12.0,25.0,55,-99.99,,,-99.99,,2013-02-12 00:32:00,
2013-02-11 19:42:00,36.0,22.0,-100.00,SW,225,7.0,22.0,55,-99.99,,,-99.99,,2013-02-12 00:42:00,
2013-02-11 19:52:00,36.0,22.0,-100.00,SSW,205,9.0,20.0,56,-99.99,,,-99.99,,2013-02-12 00:52:00,
2013-02-11 20:02:00,36.0,22.0,-100.00,SW,230,12.0,28.0,56,-99.99,,,-99.99,,2013-02-12 01:02:00,
2013-02-11 20:11:00,36.0,22.0,-100.00,SSW,210,10.0,25.0,56,-99.99,,,-99.99,,2013-02-12 01:11:00,
2013-02-11 20:22:00,36.0,22.0,-100.00,SW,215,6.0,19.0,57,-99.99,,,-99.99,,2013-02-12 01:22:00,
2013-02-11 20:32:00,36.0,22.0,-100.00,SW,235,15.0,28.0,57,-99.99,,,-99.99,,2013-02-12 01:32:00,
2013-02-11 20:42:00,35.0,22.0,-100.00,SW,220,9.0,25.0,58,-99.99,,,-99.99,,2013-02-12 01:42:00,
2013-02-11 20:52:00,35.0,22.0,-100.00,SW,215,7.0,22.0,58,-99.99,,,-99.99,,2013-02-12 01:52:00,
2013-02-11 21:02:00,35.0,23.0,-100.00,SW,225,7.0,22.0,59,-99.99,,,-99.99,,2013-02-12 02:02:00,
2013-02-11 21:12:00,35.0,23.0,-100.00,SSW,205,6.0,23.0,59,-99.99,,,-99.99,,2013-02-12 02:12:00,
2013-02-11 21:22:00,35.0,23.0,-100.00,SSW,205,11.0,22.0,59,-99.99,,,-99.99,,2013-02-12 02:22:00,
2013-02-11 21:32:00,35.0,23.0,-100.00,SW,235,11.0,17.0,59,-99.99,,,-99.99,,2013-02-12 02:32:00,
2013-02-11 21:42:00,35.0,23.0,-100.00,SW,235,11.0,21.0,59,-99.99,,,-99.99,,2013-02-12 02:42:00,
2013-02-11 21:52:00,35.0,22.0,-100.00,SW,215,11.0,17.0,59,-99.99,,,-99.99,,2013-02-12 02:52:00,
2013-02-11 22:02:00,35.0,22.0,-100.00,SW,220,14.0,21.0,58,-99.99,,,-99.99,,2013-02-12 03:02:00,
2013-02-11 22:11:00,35.0,22.0,-100.00,SW,225,9.0,18.0,59,-99.99,,,-99.99,,2013-02-12 03:11:00,
2013-02-11 22:21:00,35.0,22.0,-100.00,SW,235,9.0,21.0,59,-99.99,,,-99.99,,2013-02-12 03:21:00,
2013-02-11 22:32:00,35.0,22.0,-100.00,SW,235,12.0,25.0,59,-99.99,,,-99.99,,2013-02-12 03:32:00,
2013-02-11 22:42:00,35.0,22.0,-100.00,SW,230,10.0,21.0,59,-99.99,,,-99.99,,2013-02-12 03:42:00,
2013-02-11 22:51:00,35.0,22.0,-100.00,SSW,200,7.0,18.0,59,-99.99,,,-99.99,,2013-02-12 03:51:00,
2013-02-11 23:01:00,34.0,22.0,-100.00,SW,215,12.0,21.0,59,-99.99,,,-99.99,,2013-02-12 04:01:00,
2013-02-11 23:11:00,34.0,22.0,-100.00,SW,230,11.0,19.0,59,-99.99,,,-99.99,,2013-02-12 04:11:00,
2013-02-11 23:21:00,34.0,22.0,-100.00,SW,230,10.0,17.0,59,-99.99,,,-99.99,,2013-02-12 04:21:00,
2013-02-11 23:32:00,34.0,22.0,-100.00,SSW,205,9.0,21.0,60,-99.99,,,-99.99,,2013-02-12 04:32:00,
2013-02-11 23:42:00,34.0,22.0,-100.00,SSW,205,6.0,18.0,61,-99.99,,,-99.99,,2013-02-12 04:42:00,
2013-02-11 23:51:00,34.0,22.0,-100.00,SSW,210,10.0,18.0,61,-99.99,,,-99.99,,2013-02-12 04:51:00,